createdAt,value
2019-02-23T00:00:08.908Z,18.20
2019-02-23T00:02:40.410Z,22.67
2019-02-23T00:05:11.627Z,22.23
2019-02-23T00:07:43.032Z,19.77
2019-02-23T00:10:14.406Z,20.37
2019-02-23T00:12:45.688Z,20.87
2019-02-23T00:15:17.102Z,20.00
2019-02-23T00:17:48.376Z,17.90
2019-02-23T00:20:19.774Z,19.70
2019-02-23T00:22:51.238Z,18.93
2019-02-23T00:25:26.029Z,16.60
2019-02-23T00:27:57.501Z,16.87
2019-02-23T00:30:29.017Z,18.20
2019-02-23T00:33:00.389Z,19.70
2019-02-23T00:35:31.824Z,16.90
2019-02-23T00:38:03.140Z,18.10
2019-02-23T00:40:34.454Z,20.23
2019-02-23T00:43:05.909Z,18.87
2019-02-23T00:45:37.235Z,17.30
2019-02-23T00:48:08.778Z,20.23
2019-02-23T00:50:40.239Z,16.70
2019-02-23T00:53:11.627Z,17.80
2019-02-23T00:55:42.992Z,15.90
2019-02-23T00:58:14.383Z,19.43
2019-02-23T01:00:45.604Z,18.00
2019-02-23T01:06:06.466Z,14.87
2019-02-23T01:08:37.853Z,16.30
2019-02-23T01:11:09.151Z,20.33
2019-02-23T01:15:58.396Z,16.60
2019-02-23T01:18:29.381Z,18.20
2019-02-23T01:21:00.718Z,19.90
2019-02-23T01:23:32.177Z,17.53
2019-02-23T01:26:05.315Z,17.27
2019-02-23T01:28:36.637Z,16.20
2019-02-23T01:31:11.798Z,17.87
2019-02-23T01:33:42.978Z,18.97
2019-02-23T01:36:14.507Z,18.13
2019-02-23T01:38:46.203Z,17.47
2019-02-23T01:41:17.551Z,16.90
2019-02-23T01:43:48.975Z,16.30
2019-02-23T01:46:20.618Z,15.37
2019-02-23T01:48:52.102Z,15.80
2019-02-23T01:51:23.535Z,16.60
2019-02-23T01:53:54.865Z,17.37
2019-02-23T01:56:27.162Z,17.20
2019-02-23T01:58:58.609Z,15.23
2019-02-23T02:01:29.886Z,14.70
2019-02-23T02:04:01.392Z,17.83
2019-02-23T02:06:33.689Z,15.60
2019-02-23T02:09:05.690Z,16.97
2019-02-23T02:11:37.548Z,17.00
2019-02-23T02:14:09.070Z,15.10
2019-02-23T02:16:40.587Z,17.10
2019-02-23T02:19:14.311Z,16.20
2019-02-23T02:21:45.892Z,15.90
2019-02-23T02:24:17.216Z,16.40
2019-02-23T02:26:51.873Z,14.80
2019-02-23T02:29:25.586Z,16.07
2019-02-23T02:31:57.063Z,14.97
2019-02-23T02:34:28.393Z,15.07
2019-02-23T02:36:59.562Z,16.80
2019-02-23T02:39:30.867Z,13.23
2019-02-23T02:42:02.083Z,16.73
2019-02-23T02:44:36.233Z,18.80
2019-02-23T02:47:07.552Z,15.80
2019-02-23T02:49:38.915Z,16.73
2019-02-23T02:52:10.224Z,14.87
2019-02-23T02:54:41.535Z,15.40
2019-02-23T02:57:12.837Z,16.37
2019-02-23T02:59:44.114Z,15.70
2019-02-23T03:02:15.404Z,15.60
2019-02-23T03:04:46.679Z,14.43
2019-02-23T03:07:18.087Z,15.37
2019-02-23T03:09:49.361Z,16.60
2019-02-23T03:12:20.795Z,15.50
2019-02-23T03:14:51.997Z,17.50
2019-02-23T03:17:23.373Z,15.53
2019-02-23T03:19:54.743Z,16.70
2019-02-23T03:22:26.083Z,17.50
2019-02-23T03:24:57.558Z,16.90
2019-02-23T03:27:28.854Z,16.73
2019-02-23T03:30:00.395Z,19.40
2019-02-23T03:32:50.653Z,20.43
2019-02-23T03:35:22.007Z,19.03
2019-02-23T03:37:53.241Z,17.83
2019-02-23T03:40:24.544Z,23.67
2019-02-23T03:42:55.793Z,15.43
2019-02-23T03:45:27.140Z,18.77
2019-02-23T03:47:58.399Z,18.20
2019-02-23T03:50:29.691Z,16.30
2019-02-23T03:53:00.953Z,21.60
2019-02-23T03:55:32.344Z,15.10
2019-02-23T03:58:03.733Z,17.57
2019-02-23T04:00:35.091Z,17.00
2019-02-23T04:03:06.366Z,16.77
2019-02-23T04:05:37.646Z,16.77
2019-02-23T04:08:09.091Z,15.37
2019-02-23T04:10:40.356Z,16.50
2019-02-23T04:13:11.621Z,16.30
2019-02-23T04:15:42.944Z,15.63
2019-02-23T04:18:14.265Z,13.80
2019-02-23T04:20:45.562Z,14.07
2019-02-23T04:23:16.747Z,15.13
2019-02-23T04:25:48.113Z,13.67
2019-02-23T04:28:19.417Z,13.40
2019-02-23T04:30:50.814Z,13.33
2019-02-23T04:33:22.082Z,12.27
2019-02-23T04:35:53.324Z,17.67
2019-02-23T04:38:24.684Z,15.93
2019-02-23T04:40:56.085Z,15.50
2019-02-23T04:43:27.504Z,16.60
2019-02-23T04:45:58.887Z,16.90
2019-02-23T04:48:30.163Z,16.60
2019-02-23T04:51:13.445Z,19.00
2019-02-23T04:53:34.490Z,18.37
2019-02-23T04:56:05.747Z,19.87
2019-02-23T04:58:37.039Z,17.93
2019-02-23T05:01:08.368Z,17.70
2019-02-23T05:03:39.672Z,19.27
2019-02-23T05:06:11.210Z,18.07
2019-02-23T05:08:42.396Z,16.40
2019-02-23T05:11:13.720Z,16.33
2019-02-23T05:13:45.015Z,17.60
2019-02-23T05:16:16.322Z,16.10
2019-02-23T05:18:47.593Z,19.10
2019-02-23T05:21:26.186Z,19.57
2019-02-23T05:23:51.818Z,18.40
2019-02-23T05:26:23.165Z,19.57
2019-02-23T05:28:54.409Z,18.53
2019-02-23T05:31:25.603Z,20.17
2019-02-23T05:33:56.941Z,22.17
2019-02-23T05:36:28.250Z,21.13
2019-02-23T05:38:59.426Z,20.97
2019-02-23T05:41:30.651Z,20.30
2019-02-23T05:44:01.905Z,17.80
2019-02-23T05:46:30.526Z,19.90
2019-02-23T05:49:03.218Z,19.60
2019-02-23T05:51:38.723Z,18.60
2019-02-23T05:54:07.498Z,18.90
2019-02-23T05:56:38.736Z,16.40
2019-02-23T05:59:10.047Z,18.20
2019-02-23T06:01:41.447Z,19.37
2019-02-23T06:04:12.737Z,18.53
2019-02-23T06:06:44.089Z,17.20
2019-02-23T06:09:15.430Z,22.03
2019-02-23T06:11:46.751Z,20.60
2019-02-23T06:14:18.063Z,21.47
2019-02-23T06:16:49.223Z,24.40
2019-02-23T06:19:20.453Z,21.37
2019-02-23T06:21:54.288Z,25.33
2019-02-23T06:24:24.675Z,24.40
2019-02-23T06:26:56.015Z,23.30
2019-02-23T06:29:27.332Z,23.77
2019-02-23T06:31:58.780Z,21.63
2019-02-23T06:34:30.042Z,21.87
2019-02-23T06:37:01.433Z,21.60
2019-02-23T06:39:32.791Z,23.30
2019-02-23T06:42:04.108Z,23.83
2019-02-23T06:44:35.384Z,21.87
2019-02-23T06:47:06.682Z,19.07
2019-02-23T06:49:38.005Z,22.00
2019-02-23T06:52:09.336Z,23.83
2019-02-23T06:54:40.620Z,22.20
2019-02-23T06:57:11.911Z,19.67
2019-02-23T06:59:43.171Z,20.33
2019-02-23T07:02:14.489Z,22.93
2019-02-23T07:04:45.812Z,18.63
2019-02-23T07:07:17.297Z,21.53
2019-02-23T07:09:48.649Z,25.23
2019-02-23T07:12:19.988Z,22.20
2019-02-23T07:14:51.255Z,26.23
2019-02-23T07:17:22.523Z,20.83
2019-02-23T07:19:53.716Z,23.57
2019-02-23T07:22:25.024Z,21.87
2019-02-23T07:24:56.316Z,22.00
2019-02-23T07:27:27.628Z,19.37
2019-02-23T07:29:58.858Z,21.67
2019-02-23T07:32:30.130Z,20.33
2019-02-23T07:35:01.463Z,19.83
2019-02-23T07:37:32.797Z,19.73
2019-02-23T07:40:04.121Z,24.20
2019-02-23T07:42:35.293Z,20.70
2019-02-23T07:45:06.829Z,22.90
2019-02-23T07:47:38.164Z,20.40
2019-02-23T07:50:10.739Z,22.60
2019-02-23T07:52:42.093Z,21.97
2019-02-23T07:55:13.438Z,20.67
2019-02-23T07:57:44.889Z,18.10
2019-02-23T08:00:35.136Z,19.77
2019-02-23T08:03:06.896Z,16.77
2019-02-23T08:05:38.121Z,15.67
2019-02-23T08:08:12.469Z,17.07
2019-02-23T08:10:43.917Z,17.83
2019-02-23T08:13:15.231Z,27.60
2019-02-23T08:15:46.573Z,23.73
2019-02-23T08:18:17.953Z,23.83
2019-02-23T08:20:49.263Z,16.87
2019-02-23T08:23:20.643Z,16.13
2019-02-23T08:25:51.997Z,14.03
2019-02-23T08:28:23.341Z,14.60
2019-02-23T08:30:54.625Z,13.07
2019-02-23T08:33:25.992Z,13.90
2019-02-23T08:35:57.262Z,10.27
2019-02-23T08:38:28.703Z,11.57
2019-02-23T08:40:59.957Z,12.30
2019-02-23T08:43:31.245Z,14.00
2019-02-23T08:46:02.572Z,14.80
2019-02-23T08:48:33.908Z,17.10
2019-02-23T08:51:05.286Z,18.97
2019-02-23T08:53:36.549Z,18.80
2019-02-23T08:56:07.879Z,14.27
2019-02-23T08:58:39.046Z,12.37
2019-02-23T09:01:10.354Z,14.90
2019-02-23T09:03:41.675Z,12.27
2019-02-23T09:06:12.965Z,12.93
2019-02-23T09:08:44.261Z,13.47
2019-02-23T09:11:15.491Z,11.47
2019-02-23T09:13:46.822Z,10.00
2019-02-23T09:16:18.115Z,10.57
2019-02-23T09:18:49.503Z,11.13
2019-02-23T09:21:20.872Z,10.87
2019-02-23T09:23:52.121Z,9.73
2019-02-23T09:26:23.518Z,8.77
2019-02-23T09:28:54.942Z,12.03
2019-02-23T09:31:26.485Z,10.37
2019-02-23T09:33:57.804Z,9.33
2019-02-23T09:36:29.179Z,13.50
2019-02-23T09:39:00.536Z,13.00
2019-02-23T09:41:31.852Z,12.77
2019-02-23T09:44:03.131Z,11.50
2019-02-23T09:46:34.480Z,11.40
2019-02-23T09:49:05.816Z,11.07
2019-02-23T09:51:37.127Z,9.57
2019-02-23T09:54:08.510Z,8.80
2019-02-23T09:56:39.831Z,10.30
2019-02-23T10:23:50.057Z,10.73
2019-02-23T10:26:21.398Z,8.80
2019-02-23T10:28:52.797Z,10.67
2019-02-23T10:31:27.740Z,8.83
2019-02-23T10:33:59.102Z,9.10
2019-02-23T10:36:30.615Z,9.67
2019-02-23T10:39:01.897Z,9.33
2019-02-23T10:41:33.095Z,10.67
2019-02-23T10:44:04.438Z,8.60
2019-02-23T10:46:35.751Z,9.77
2019-02-23T10:49:07.109Z,9.30
2019-02-23T10:51:38.398Z,9.00
2019-02-23T10:54:09.869Z,8.07
2019-02-23T10:56:41.241Z,9.73
2019-02-23T10:59:12.660Z,7.93
2019-02-23T11:01:44.076Z,8.67
2019-02-23T11:04:15.480Z,8.57
2019-02-23T11:06:46.721Z,7.90
2019-02-23T11:09:23.109Z,7.67
2019-02-23T11:11:54.404Z,6.83
2019-02-23T11:14:25.670Z,8.47
2019-02-23T11:16:57.120Z,9.67
2019-02-23T11:19:28.372Z,7.83
2019-02-23T11:21:59.885Z,8.10
2019-02-23T11:24:31.761Z,6.10
2019-02-23T11:27:03.121Z,7.93
2019-02-23T11:29:34.470Z,8.40
2019-02-23T11:32:05.778Z,7.77
2019-02-23T11:34:39.590Z,7.87
2019-02-23T11:37:11.036Z,7.97
2019-02-23T11:39:42.432Z,7.00
2019-02-23T11:42:13.799Z,6.20
2019-02-23T11:44:45.201Z,6.57
2019-02-23T11:47:16.539Z,9.30
2019-02-23T11:49:49.235Z,7.20
2019-02-23T11:52:20.631Z,7.60
2019-02-23T11:54:51.886Z,6.70
2019-02-23T11:57:23.238Z,7.37
2019-02-23T11:59:56.994Z,8.13
2019-02-23T12:02:28.242Z,7.67
2019-02-23T12:04:59.537Z,7.10
2019-02-23T12:07:31.045Z,5.67
2019-02-23T12:10:02.363Z,6.93
2019-02-23T12:12:34.016Z,5.73
2019-02-23T12:15:05.624Z,6.33
2019-02-23T12:17:47.780Z,6.60
2019-02-23T12:20:20.261Z,5.50
2019-02-23T12:22:51.454Z,6.73
2019-02-23T12:25:22.831Z,6.73
2019-02-23T12:28:10.135Z,7.60
2019-02-23T12:30:41.629Z,6.77
2019-02-23T12:33:12.744Z,6.60
2019-02-23T12:35:44.745Z,10.13
2019-02-23T12:38:15.929Z,7.53
2019-02-23T12:40:47.189Z,6.23
2019-02-23T12:43:18.470Z,6.90
2019-02-23T12:45:49.748Z,6.73
2019-02-23T12:48:21.024Z,6.50
2019-02-23T12:50:52.322Z,6.80
2019-02-23T12:53:23.605Z,6.40
2019-02-23T12:55:54.864Z,6.40
2019-02-23T12:58:26.174Z,7.27
2019-02-23T13:00:57.448Z,6.53
2019-02-23T13:03:28.813Z,5.90
2019-02-23T13:06:00.067Z,6.37
2019-02-23T13:09:14.777Z,5.77
2019-02-23T13:11:57.084Z,7.00
2019-02-23T13:15:06.328Z,5.07
2019-02-23T13:18:34.333Z,5.97
2019-02-23T13:22:10.797Z,6.80
2019-02-23T13:25:42.092Z,5.60
2019-02-23T13:29:10.082Z,6.40
2019-02-23T13:32:55.336Z,6.00
2019-02-23T13:36:03.292Z,6.43
2019-02-23T13:39:41.704Z,6.03
2019-02-23T13:42:32.982Z,6.07
2019-02-23T13:46:26.204Z,4.70
2019-02-23T13:49:41.958Z,6.00
2019-02-23T13:52:53.043Z,6.30
2019-02-23T13:56:15.968Z,5.60
2019-02-23T13:59:52.322Z,5.37
2019-02-23T14:03:21.011Z,6.23
2019-02-23T14:06:11.293Z,4.83
2019-02-23T14:09:45.506Z,5.80
2019-02-23T14:13:04.322Z,6.27
2019-02-23T14:16:54.836Z,6.43
2019-02-23T14:20:19.491Z,6.00
2019-02-23T14:23:56.753Z,6.17
2019-02-23T14:27:44.661Z,5.17
2019-02-23T14:31:03.586Z,6.50
2019-02-23T14:34:37.096Z,4.80
2019-02-23T14:38:05.982Z,5.90
2019-02-23T14:41:35.389Z,5.50
2019-02-23T14:44:55.801Z,5.80
2019-02-23T14:47:57.941Z,6.33
2019-02-23T14:51:17.943Z,5.63
2019-02-23T14:54:34.061Z,5.90
2019-02-23T14:58:14.019Z,6.13
2019-02-23T15:02:12.072Z,6.37
2019-02-23T15:05:14.532Z,5.50
2019-02-23T15:08:42.856Z,5.70
2019-02-23T15:12:05.211Z,10.03
2019-02-23T15:15:56.035Z,8.67
2019-02-23T15:19:03.640Z,8.30
2019-02-23T15:22:20.352Z,8.20
2019-02-23T15:25:59.467Z,6.47
2019-02-23T15:29:26.784Z,8.00
2019-02-23T15:33:11.638Z,8.30
2019-02-23T15:36:37.674Z,9.60
2019-02-23T15:40:02.997Z,11.90
2019-02-23T15:43:32.861Z,9.40
2019-02-23T15:47:11.689Z,11.10
2019-02-23T15:49:42.927Z,10.10
2019-02-23T15:52:14.409Z,10.30
2019-02-23T15:54:45.921Z,8.50
2019-02-23T15:57:19.221Z,8.13
2019-02-23T15:59:50.154Z,8.27
2019-02-23T16:02:24.669Z,7.70
2019-02-23T16:04:56.024Z,8.83
2019-02-23T16:07:28.824Z,9.53
2019-02-23T16:10:00.219Z,9.07
2019-02-23T16:12:31.509Z,9.77
2019-02-23T16:15:02.803Z,9.17
2019-02-23T16:17:34.157Z,9.30
2019-02-23T16:20:05.792Z,9.00
2019-02-23T16:22:37.155Z,8.87
2019-02-23T16:25:09.336Z,9.10
2019-02-23T16:27:40.685Z,8.47
2019-02-23T16:30:12.407Z,9.50
2019-02-23T16:32:43.629Z,10.10
2019-02-23T16:35:14.977Z,9.90
2019-02-23T16:37:57.498Z,10.33
2019-02-23T16:40:31.715Z,8.37
2019-02-23T16:43:04.292Z,9.23
2019-02-23T16:45:35.672Z,11.03
2019-02-23T16:48:07.150Z,10.13
2019-02-23T16:50:38.609Z,10.10
2019-02-23T16:53:10.014Z,11.50
2019-02-23T16:55:50.557Z,11.00
2019-02-23T16:58:14.414Z,14.10
2019-02-23T17:00:45.600Z,12.90
2019-02-23T17:03:16.971Z,12.57
2019-02-23T17:05:48.542Z,10.70
2019-02-23T17:08:23.391Z,10.60
2019-02-23T17:10:55.453Z,12.10
2019-02-23T17:13:26.839Z,11.33
2019-02-23T17:15:58.284Z,14.57
2019-02-23T17:18:29.674Z,15.70
2019-02-23T17:21:01.006Z,18.40
2019-02-23T17:23:34.701Z,20.17
2019-02-23T17:26:06.263Z,17.73
2019-02-23T17:28:37.760Z,14.90
2019-02-23T17:31:09.365Z,12.17
2019-02-23T17:33:40.622Z,14.57
2019-02-23T17:36:26.320Z,14.50
2019-02-23T17:38:57.598Z,14.70
2019-02-23T17:41:28.954Z,12.03
2019-02-23T17:44:02.809Z,12.70
2019-02-23T17:46:35.311Z,12.53
2019-02-23T17:49:10.326Z,12.70
2019-02-23T17:51:44.997Z,12.27
2019-02-23T17:54:21.764Z,13.10
2019-02-23T17:56:54.682Z,15.30
2019-02-23T17:59:26.521Z,12.27
2019-02-23T18:01:59.765Z,14.03
2019-02-23T18:04:31.226Z,13.93
2019-02-23T18:07:02.639Z,13.47
2019-02-23T18:09:34.221Z,16.83
2019-02-23T18:12:08.718Z,13.43
2019-02-23T18:14:40.041Z,14.50
2019-02-23T18:17:11.558Z,13.60
2019-02-23T18:19:43.021Z,16.00
2019-02-23T18:22:14.327Z,13.60
2019-02-23T18:24:47.926Z,13.53
2019-02-23T18:27:19.625Z,13.20
2019-02-23T18:29:52.836Z,13.07
2019-02-23T18:32:24.373Z,15.40
2019-02-23T18:35:02.290Z,14.80
2019-02-23T18:37:35.743Z,15.07
2019-02-23T18:40:07.562Z,17.00
2019-02-23T18:42:39.098Z,20.93
2019-02-23T18:45:12.726Z,19.70
2019-02-23T18:47:48.187Z,18.80
2019-02-23T18:50:24.203Z,23.80
2019-02-23T18:52:57.053Z,22.57
2019-02-23T18:55:28.535Z,19.97
2019-02-23T18:58:05.031Z,23.17
2019-02-23T19:00:36.680Z,20.63
2019-02-23T19:08:09.814Z,20.10
2019-02-23T19:10:41.170Z,16.40
2019-02-23T19:13:18.470Z,19.20
2019-02-23T19:15:50.994Z,17.60
2019-02-23T19:18:23.225Z,17.13
2019-02-23T19:20:56.280Z,14.60
2019-02-23T19:23:32.759Z,17.77
2019-02-23T19:26:04.103Z,15.30
2019-02-23T19:28:44.068Z,18.23
2019-02-23T19:31:21.438Z,16.00
2019-02-23T19:33:58.557Z,12.20
2019-02-23T19:36:30.915Z,15.23
2019-02-23T19:39:07.239Z,15.67
2019-02-23T19:41:40.567Z,13.57
2019-02-23T19:44:11.988Z,13.77
2019-02-23T19:46:52.606Z,14.43
2019-02-23T19:49:23.953Z,12.07
2019-02-23T19:51:56.614Z,13.50
2019-02-23T19:54:28.390Z,14.00
2019-02-23T19:57:02.684Z,14.23
2019-02-23T19:59:35.513Z,12.03
2019-02-23T20:02:09.494Z,13.40
2019-02-23T20:04:43.001Z,13.43
2019-02-23T20:07:13.974Z,11.10
2019-02-23T20:09:45.414Z,11.47
2019-02-23T20:12:19.281Z,11.50
2019-02-23T20:14:50.642Z,10.53
2019-02-23T20:17:22.099Z,10.90
2019-02-23T20:19:55.438Z,12.60
2019-02-23T20:22:26.931Z,11.60
2019-02-23T20:24:58.308Z,12.10
2019-02-23T20:27:33.674Z,12.30
2019-02-23T20:30:04.992Z,11.13
2019-02-23T20:32:36.322Z,12.03
2019-02-23T20:35:08.036Z,10.80
2019-02-23T20:37:40.661Z,11.50
2019-02-23T20:40:12.301Z,11.40
2019-02-23T20:42:43.734Z,9.30
2019-02-23T20:45:15.268Z,11.50
2019-02-23T20:47:46.627Z,12.50
2019-02-23T20:50:18.082Z,11.77
2019-02-23T20:52:49.419Z,9.60
2019-02-23T20:55:26.581Z,8.43
2019-02-23T20:57:58.019Z,10.00
2019-02-23T21:00:29.396Z,9.57
2019-02-23T21:03:03.306Z,8.80
2019-02-23T21:05:33.872Z,9.20
2019-02-23T21:08:06.686Z,9.60
2019-02-23T21:10:38.161Z,8.23
2019-02-23T21:13:09.488Z,8.70
2019-02-23T21:15:40.784Z,8.53
2019-02-23T21:18:16.543Z,8.03
2019-02-23T21:20:51.773Z,7.13
2019-02-23T21:23:30.330Z,7.10
2019-02-23T21:26:01.768Z,6.30
2019-02-23T21:28:34.429Z,7.17
2019-02-23T21:31:05.803Z,7.73
2019-02-23T21:33:42.153Z,6.60
2019-02-23T21:36:13.539Z,7.40
2019-02-23T21:38:44.949Z,8.80
2019-02-23T21:41:16.365Z,6.47
2019-02-23T21:43:51.859Z,7.50
2019-02-23T21:46:23.277Z,7.97
2019-02-23T21:48:54.839Z,8.50
2019-02-23T21:51:26.728Z,8.87
2019-02-23T21:53:58.180Z,7.60
2019-02-23T21:56:29.871Z,7.93
2019-02-23T21:59:01.187Z,7.63
2019-02-23T22:01:36.461Z,7.00
2019-02-23T22:04:08.869Z,7.73
2019-02-23T22:06:40.162Z,7.10
2019-02-23T22:09:11.807Z,8.10
2019-02-23T22:11:43.212Z,8.23
2019-02-23T22:14:14.422Z,8.57
2019-02-23T22:16:48.417Z,7.40
2019-02-23T22:19:21.832Z,7.83
2019-02-23T22:21:52.664Z,7.60
2019-02-23T22:24:24.033Z,7.97
2019-02-23T22:26:55.417Z,7.63
2019-02-23T22:29:26.790Z,7.47
2019-02-23T22:31:59.485Z,8.70
2019-02-23T22:34:30.569Z,7.80
2019-02-23T22:37:01.930Z,7.93
2019-02-23T22:39:33.216Z,7.17
2019-02-23T22:42:04.476Z,8.07
2019-02-23T22:44:35.792Z,6.87
2019-02-23T22:47:07.260Z,7.70
2019-02-23T22:49:38.661Z,9.20
2019-02-23T22:52:09.790Z,8.50
2019-02-23T22:54:40.832Z,8.30
2019-02-23T22:57:12.066Z,8.30
2019-02-23T22:59:43.181Z,9.47
2019-02-23T23:02:14.333Z,8.57
2019-02-23T23:04:45.605Z,8.63
2019-02-23T23:07:16.773Z,9.30
2019-02-23T23:09:47.937Z,9.53
2019-02-23T23:12:21.924Z,7.60
2019-02-23T23:14:53.299Z,6.80
2019-02-23T23:17:24.570Z,7.93
2019-02-23T23:19:58.961Z,8.57
2019-02-23T23:22:30.247Z,8.43
2019-02-23T23:25:01.435Z,8.13
2019-02-23T23:27:32.796Z,8.30
2019-02-23T23:30:04.128Z,7.70
2019-02-23T23:35:10.419Z,9.60
2019-02-23T23:37:41.661Z,7.57
2019-02-23T23:40:12.921Z,9.03
2019-02-23T23:42:44.061Z,9.67
2019-02-23T23:45:15.347Z,10.00
2019-02-23T23:47:46.651Z,9.57
2019-02-23T23:50:17.909Z,11.63
2019-02-23T23:52:49.247Z,9.80
2019-02-23T23:55:20.524Z,9.73
2019-02-23T23:57:58.061Z,9.20
